• Join FlightAware (Why Join?)
  • Login
  • US Flag 
12:56PM EDT


 

Airport Tracker/Info


-or-


 

Live Flight TrackerFlight Track Log ✈ SWA1535 ✈ 28-Apr-2013 ✈ KFLL - KMDW

Flight Track Log - Related Links

Times and Time Zones

All times are in EDT time to prevent confusion due to time zone crossing. See the SWA1535 flight status page for this flight to view local times or setup timezone preferences in your user account.

Time Position Orientation Groundspeed Altitude Reporting Facility
EDT Latitude Longitude Course Direction KTS MPH feet Rate Location/Type
06:43AM 26.0750 -80.1367 81° East 151 174 700  Level Miami Center
06:43AM 26.0775 -80.1183 81° East 159 183 1,400 1,920 Climbing Miami Center
06:44AM 26.0850 -80.0583 82° East 219 252 3,400 1,860 Climbing Miami Center
06:45AM 26.1369 -80.0689 350° North 268 308 5,000 2,040 Climbing Miami Center
06:46AM 26.1875 -80.1514 304° West 286 329 7,600 1,980 Climbing Miami Center
06:47AM 26.2358 -80.2222 307° West 303 349 9,400 1,920 Climbing Miami Center
06:48AM 26.2922 -80.3164 304° West 329 379 11,600 2,520 Climbing Miami Center
06:49AM 26.3444 -80.4036 304° West 368 423 14,500 3,000 Climbing Miami Center
06:50AM 26.4106 -80.5122 304° West 386 444 17,700 2,820 Climbing Miami Center
06:51AM 26.4797 -80.5911 314° West 386 444 20,200 2,520 Climbing Miami Center
06:52AM 26.5819 -80.6686 326° Northwest 398 458 22,800 2,280 Climbing Miami Center
06:53AM 26.6700 -80.7367 325° Northwest 423 487 24,800 1,800 Climbing Miami Center
06:54AM 26.7683 -80.8119 326° Northwest 423 487 26,500 1,620 Climbing Miami Center
06:55AM 26.8706 -80.8900 326° Northwest 434 499 28,100 1,500 Climbing Miami Center
06:56AM 26.9747 -80.9728 325° Northwest 439 505 29,600 1,800 Climbing Miami Center
06:57AM 27.0789 -81.0511 326° Northwest 439 505 31,700 1,860 Climbing Miami Center
06:58AM 27.1789 -81.1269 326° Northwest 439 505 33,400 1,620 Climbing Miami Center
06:59AM 27.2769 -81.2053 325° Northwest 439 505 35,000 1,620 Climbing Miami Center
07:00AM 27.3747 -81.2817 325° Northwest 433 498 36,700 1,500 Climbing Miami Center
07:01AM 27.4706 -81.3556 326° Northwest 428 493 38,000 600 Climbing Miami Center
07:02AM 27.5644 -81.4269 326° Northwest 422 486 38,000  Level Miami Center
07:03AM 27.6581 -81.5011 325° Northwest 422 486 38,000  Level Miami Center
07:04AM 27.7619 -81.5803 326° Northwest 417 480 38,000  Level Miami Center
07:05AM 27.8453 -81.6472 325° Northwest 417 480 38,000  Level Miami Center
07:07AM 28.0283 -81.7875 326° Northwest 417 480 38,000  Level Jacksonville Center
07:08AM 28.1228 -81.8617 325° Northwest 417 480 38,000  Level Jacksonville Center
07:09AM 28.2153 -81.9364 325° Northwest 417 480 38,000  Level Jacksonville Center
07:10AM 28.3075 -82.0083 326° Northwest 411 473 38,000  Level Jacksonville Center
07:11AM 28.3978 -82.0808 325° Northwest 404 465 38,000  Level Jacksonville Center
07:12AM 28.4900 -82.1508 326° Northwest 404 465 38,000  Level Jacksonville Center
07:13AM 28.5781 -82.2236 324° Northwest 399 459 38,000  Level Jacksonville Center
07:14AM 28.6703 -82.2939 326° Northwest 399 459 38,000  Level Jacksonville Center
07:15AM 28.7583 -82.3692 323° Northwest 399 459 38,000  Level Jacksonville Center
07:16AM 28.8483 -82.4422 325° Northwest 399 459 38,000  Level Jacksonville Center
07:17AM 28.9383 -82.5131 325° Northwest 399 459 38,000  Level Jacksonville Center
07:18AM 29.0281 -82.5861 325° Northwest 399 459 38,000  Level Jacksonville Center
07:19AM 29.1203 -82.6619 324° Northwest 404 465 38,000  Level Jacksonville Center
07:20AM 29.2122 -82.7356 325° Northwest 404 465 38,000  Level Jacksonville Center
07:21AM 29.3019 -82.8092 324° Northwest 404 465 38,000  Level Jacksonville Center
07:22AM 29.3939 -82.8831 325° Northwest 404 465 38,000  Level Jacksonville Center
07:23AM 29.4814 -82.9569 324° Northwest 404 465 38,000  Level Jacksonville Center
07:24AM 29.5753 -83.0333 325° Northwest 409 471 38,000  Level Jacksonville Center
07:25AM 29.6608 -83.1078 323° Northwest 404 465 38,000  Level Jacksonville Center
07:26AM 29.7483 -83.1867 322° Northwest 390 449 38,000  Level Jacksonville Center
07:27AM 29.8256 -83.2542 323° Northwest 390 449 38,000  Level Jacksonville Center
07:28AM 29.9131 -83.3311 323° Northwest 390 449 38,000  Level Jacksonville Center
07:29AM 29.9961 -83.4058 322° Northwest 390 449 38,000  Level Jacksonville Center
07:30AM 30.0814 -83.4831 322° Northwest 390 449 38,000  Level Jacksonville Center
07:31AM 30.1667 -83.5606 322° Northwest 390 449 38,000  Level Jacksonville Center
07:32AM 30.2497 -83.6381 321° Northwest 390 449 38,000  Level Jacksonville Center
07:33AM 30.3369 -83.7158 322° Northwest 390 449 38,000  Level Jacksonville Center
07:34AM 30.4200 -83.7911 322° Northwest 390 449 38,000  Level Jacksonville Center
07:35AM 30.5028 -83.8667 322° Northwest 385 443 38,000  Level Jacksonville Center
07:36AM 30.5900 -83.9494 321° Northwest 374 430 38,000  Level Jacksonville Center
07:37AM 30.6708 -84.0228 322° Northwest 374 430 38,000  Level Jacksonville Center
07:38AM 30.7494 -84.0964 321° Northwest 374 430 38,000  Level Jacksonville Center
07:39AM 30.8303 -84.1675 323° Northwest 374 430 38,000  Level Jacksonville Center
07:40AM 30.9108 -84.2461 320° Northwest 374 430 38,000  Level Jacksonville Center
07:41AM 30.9894 -84.3175 322° Northwest 374 430 38,000  Level Jacksonville Center
07:42AM 31.0678 -84.3914 321° Northwest 369 425 38,000  Level Jacksonville Center
07:43AM 31.1483 -84.4656 322° Northwest 369 425 38,000  Level Jacksonville Center
07:45AM 31.3236 -84.6319 321° Northwest 371 427 38,000  Level Atlanta Center
07:46AM 31.4025 -84.7031 322° Northwest 366 421 38,000  Level Atlanta Center
07:47AM 31.4814 -84.7742 322° Northwest 366 421 38,000  Level Atlanta Center
07:48AM 31.5603 -84.8528 320° Northwest 366 421 38,000  Level Atlanta Center
07:49AM 31.6392 -84.9267 321° Northwest 366 421 38,000  Level Atlanta Center
07:50AM 31.7178 -85.0008 321° Northwest 366 421 38,000  Level Atlanta Center
07:51AM 31.8006 -85.0797 321° Northwest 376 433 38,000  Level Atlanta Center
07:52AM 31.8794 -85.1492 323° Northwest 371 427 38,000  Level Atlanta Center
07:53AM 31.9581 -85.2261 320° Northwest 371 427 38,000  Level Atlanta Center
07:54AM 32.0367 -85.3006 321° Northwest 371 427 38,000  Level Atlanta Center
07:55AM 32.1172 -85.3728 323° Northwest 371 427 38,000  Level Atlanta Center
07:56AM 32.1914 -85.4475 320° Northwest 371 427 38,000  Level Atlanta Center
07:57AM 32.2719 -85.5225 322° Northwest 371 427 38,000  Level Atlanta Center
07:58AM 32.3503 -85.6000 320° Northwest 371 427 38,000  Level Atlanta Center
07:59AM 32.4308 -85.6778 321° Northwest 371 427 38,000  Level Atlanta Center
08:00AM 32.5111 -85.7531 322° Northwest 371 427 38,000  Level Atlanta Center
08:01AM 32.5914 -85.8336 320° Northwest 371 427 38,000  Level Atlanta Center
08:02AM 32.6717 -85.9092 322° Northwest 371 427 38,000  Level Atlanta Center
08:03AM 32.7539 -85.9900 320° Northwest 376 433 38,000  Level Atlanta Center
08:04AM 32.8342 -86.0686 321° Northwest 376 433 38,000  Level Atlanta Center
08:05AM 32.9122 -86.1469 320° Northwest 376 433 38,000  Level Atlanta Center
08:06AM 32.9942 -86.2258 321° Northwest 376 433 38,000  Level Atlanta Center
08:07AM 33.0719 -86.3069 319° Northwest 376 433 38,000  Level Atlanta Center
08:08AM 33.1542 -86.3786 324° Northwest 371 427 38,000  Level Atlanta Center
08:09AM 33.2236 -86.4575 316° Northwest 376 433 38,000  Level Atlanta Center
08:10AM 33.3078 -86.5344 323° Northwest 376 433 38,000  Level Atlanta Center
08:11AM 33.3853 -86.6136 320° Northwest 371 427 38,000  Level Atlanta Center
08:12AM 33.4650 -86.6958 319° Northwest 371 427 38,000  Level Atlanta Center
08:13AM 33.5467 -86.7756 321° Northwest 371 427 38,000  Level Atlanta Center
08:14AM 33.6244 -86.8528 320° Northwest 371 427 38,000  Level Atlanta Center
08:15AM 33.7147 -86.9183 329° Northwest 376 433 38,000  Level Atlanta Center
08:16AM 33.8158 -86.9692 337° Northwest 376 433 38,000  Level Atlanta Center
08:17AM 33.9147 -87.0150 339° North 383 441 38,000  Level Atlanta Center
08:20AM 34.1369 -87.1250 338° Northwest 395 455 38,000  Level Memphis Center
08:21AM 34.2383 -87.1739 338° Northwest 395 455 38,000  Level Memphis Center
08:22AM 34.3564 -87.2222 341° North 400 460 38,000  Level Memphis Center
08:23AM 34.4578 -87.2742 337° Northwest 392 451 38,000  Level Memphis Center
08:24AM 34.5614 -87.3233 339° North 401 461 38,000  Level Memphis Center
08:25AM 34.6628 -87.3803 335° Northwest 401 461 38,000  Level Memphis Center
08:26AM 34.7661 -87.4272 340° North 401 461 38,000  Level Memphis Center
08:27AM 34.8717 -87.4767 339° North 401 461 38,000  Level Memphis Center
08:28AM 34.9750 -87.5264 338° Northwest 396 456 38,000  Level Memphis Center
08:29AM 35.0783 -87.5811 337° Northwest 396 456 38,000  Level Memphis Center
08:30AM 35.1775 -87.6236 341° North 401 461 38,000  Level Memphis Center
08:31AM 35.2828 -87.6761 338° Northwest 401 461 38,000  Level Memphis Center
08:32AM 35.3883 -87.7261 339° North 401 461 38,000  Level Memphis Center
08:33AM 35.4917 -87.7842 335° Northwest 401 461 38,000  Level Memphis Center
08:34AM 35.5969 -87.8369 338° Northwest 401 461 38,000  Level Memphis Center
08:35AM 35.7064 -87.8900 339° North 406 467 38,000  Level Memphis Center
08:36AM 35.8267 -87.9478 339° North 417 480 38,000  Level Memphis Center
08:37AM 35.9339 -88.0036 337° Northwest 417 480 38,000  Level Memphis Center
08:38AM 36.0456 -88.0569 339° North 422 486 38,000  Level Memphis Center
08:39AM 36.1569 -88.1153 337° Northwest 422 486 38,000  Level Memphis Center
08:40AM 36.2683 -88.1639 341° North 422 486 38,000  Level Memphis Center
08:41AM 36.3800 -88.2228 337° Northwest 422 486 38,000  Level Memphis Center
08:42AM 36.4956 -88.2817 338° Northwest 428 493 38,000  Level Memphis Center
08:43AM 36.6069 -88.3381 338° Northwest 433 498 38,000  Level Memphis Center
08:44AM 36.7225 -88.3972 338° Northwest 438 504 38,000  Level Memphis Center
08:45AM 36.8317 -88.4517 338° Northwest 438 504 38,000  Level Memphis Center
08:46AM 36.9431 -88.5114 337° Northwest 438 504 38,000  Level Memphis Center
08:47AM 37.0544 -88.5686 338° Northwest 433 498 38,000  Level Memphis Center
08:48AM 37.1636 -88.6258 337° Northwest 428 493 38,000  Level Memphis Center
08:50AM 37.3775 -88.7372 338° Northwest 425 489 38,000  Level Kansas City Center
08:51AM 37.4869 -88.7933 338° Northwest 425 489 38,000  Level Kansas City Center
08:52AM 37.5975 -88.8531 337° Northwest 430 495 38,000  Level Kansas City Center
08:53AM 37.7292 -88.9217 338° Northwest 427 491 38,000  Level Kansas City Center
08:54AM 37.8358 -88.9708 340° North 430 495 38,000  Level Kansas City Center
08:55AM 37.9639 -88.9625 North 441 507 38,000  Level Kansas City Center
08:56AM 38.0858 -88.9528 North 449 517 38,000  Level Kansas City Center
08:57AM 38.2075 -88.9444 North 446 513 38,000 -60 Level Kansas City Center
08:58AM 38.3472 -88.9331 North 446 513 37,900 -600 Descending Kansas City Center
08:59AM 38.4697 -88.9231 North 444 511 36,900 -1,020 Descending Kansas City Center
09:00AM 38.5883 -88.9147 North 433 498 35,900 -900 Descending Kansas City Center
09:01AM 38.6936 -88.9058 North 435 501 35,100 -480 Descending Kansas City Center
09:02AM 38.8369 -88.8933 North 433 498 35,000 -600 Descending Kansas City Center
09:03AM 38.9550 -88.8842 North 430 495 34,000 -1,020 Descending Kansas City Center
09:04AM 39.0747 -88.8742 North 430 495 33,000 -1,020 Descending Kansas City Center
09:05AM 39.1942 -88.8653 North 432 497 32,000 -1,020 Descending Kansas City Center
09:06AM 39.3111 -88.8558 North 426 490 31,000 -1,080 Descending Kansas City Center
09:07AM 39.4389 -88.8450 North 423 487 29,900 -1,020 Descending Kansas City Center
09:08AM 39.5558 -88.8361 North 422 486 29,000 -480 Descending Kansas City Center
09:09AM 39.6706 -88.8267 North 416 479 29,000  Level Kansas City Center
09:10AM 39.7842 -88.8178 North 412 474 29,000  Level Kansas City Center
09:11AM 39.8997 -88.8081 North 414 476 29,000  Level Kansas City Center
09:12AM 40.0142 -88.7986 North 415 478 29,000 -420 Level Kansas City Center
09:13AM 40.1292 -88.7889 North 414 476 28,200 -900 Descending Kansas City Center
09:14AM 40.1961 -88.7850 North 414 476 27,600 -1,140 Descending Chicago Center
09:15AM 40.3075 -88.7769 North 404 465 26,400 -1,620 Descending Chicago Center
09:16AM 40.4386 -88.7656 North 396 456 24,300 -1,800 Descending Chicago Center
09:17AM 40.5442 -88.7569 North 408 470 22,800 -1,740 Descending Chicago Center
09:18AM 40.6619 -88.7469 North 424 488 20,800 -2,280 Descending Chicago Center
09:19AM 40.7750 -88.7372 North 411 473 18,200 -2,640 Descending Chicago Center
09:20AM 40.8956 -88.6817 19° North 390 449 15,400 -2,700 Descending Chicago Center
09:21AM 40.9967 -88.6267 22° Northeast 391 450 12,700 -2,280 Descending Chicago Center
09:22AM 41.0911 -88.5725 23° Northeast 376 433 10,800 -1,320 Descending Chicago Center
09:23AM 41.1756 -88.5247 23° Northeast 335 386 10,100 -1,080 Descending Chicago Center
09:24AM 41.2514 -88.4833 22° Northeast 303 349 8,700 -1,440 Descending Chicago Center
09:25AM 41.3239 -88.4419 23° Northeast 286 329 7,200 -1,320 Descending Chicago Center
09:26AM 41.3919 -88.3956 27° Northeast 278 320 6,000 -720 Descending Chicago Center
09:27AM 41.4458 -88.2989 53° Northeast 270 311 5,800 -660 Descending Chicago Center
09:28AM 41.4897 -88.2186 54° Northeast 268 308 4,700 -900 Descending Chicago Center
09:29AM 41.5328 -88.1406 54° Northeast 261 300 4,000 -360 Descending Chicago Center
09:30AM 41.5744 -88.0631 54° Northeast 258 297 4,000  Level Chicago Center
09:31AM 41.6158 -87.9861 54° Northeast 256 295 4,000  Level Chicago Center
09:32AM 41.6531 -87.9183 54° Northeast 242 278 4,000 -540 Level Chicago Center
09:33AM 41.6950 -87.8647 44° Northeast 223 257 3,000 -1,140 Descending Chicago Center
09:34AM 41.7167 -87.8333 47° Northeast 185 213 2,200 -960 Descending Chicago TRACON
09:35AM 41.7500 -87.8000 37° Northeast 130 150 1,500 -720 Descending Chicago TRACON
09:38AM 41.7833 -87.7500 270° West  Level FlightAware Approximate